sensor_id;sensor_type;location;lat;lon;timestamp;P1;durP1;ratioP1;P2;durP2;ratioP2
33190;SDS011;19554;42.652;23.364;2023-11-19T00:00:49;3.30;;;3.00;;
33190;SDS011;19554;42.652;23.364;2023-11-19T00:03:16;4.38;;;3.63;;
33190;SDS011;19554;42.652;23.364;2023-11-19T00:05:42;4.53;;;3.53;;
33190;SDS011;19554;42.652;23.364;2023-11-19T00:08:09;3.85;;;3.30;;
33190;SDS011;19554;42.652;23.364;2023-11-19T00:10:35;4.13;;;3.58;;
33190;SDS011;19554;42.652;23.364;2023-11-19T00:13:00;4.90;;;3.35;;
33190;SDS011;19554;42.652;23.364;2023-11-19T00:15:27;4.38;;;3.80;;
33190;SDS011;19554;42.652;23.364;2023-11-19T00:17:53;4.00;;;3.45;;
33190;SDS011;19554;42.652;23.364;2023-11-19T00:20:19;3.63;;;3.25;;
33190;SDS011;19554;42.652;23.364;2023-11-19T00:22:47;3.95;;;3.33;;
33190;SDS011;19554;42.652;23.364;2023-11-19T00:25:16;3.80;;;3.35;;
33190;SDS011;19554;42.652;23.364;2023-11-19T00:27:42;4.15;;;3.70;;
33190;SDS011;19554;42.652;23.364;2023-11-19T00:30:09;5.70;;;3.70;;
33190;SDS011;19554;42.652;23.364;2023-11-19T00:32:35;3.45;;;3.15;;
33190;SDS011;19554;42.652;23.364;2023-11-19T00:35:03;4.15;;;3.05;;
33190;SDS011;19554;42.652;23.364;2023-11-19T00:37:29;4.35;;;3.85;;
33190;SDS011;19554;42.652;23.364;2023-11-19T00:39:55;4.25;;;3.53;;
33190;SDS011;19554;42.652;23.364;2023-11-19T00:42:21;5.70;;;3.85;;
33190;SDS011;19554;42.652;23.364;2023-11-19T00:44:49;5.28;;;3.80;;
33190;SDS011;19554;42.652;23.364;2023-11-19T00:47:14;5.03;;;3.60;;
33190;SDS011;19554;42.652;23.364;2023-11-19T00:49:40;4.03;;;3.53;;
33190;SDS011;19554;42.652;23.364;2023-11-19T00:52:05;4.68;;;3.45;;
33190;SDS011;19554;42.652;23.364;2023-11-19T00:54:31;4.18;;;3.60;;
33190;SDS011;19554;42.652;23.364;2023-11-19T00:56:57;4.60;;;3.70;;
33190;SDS011;19554;42.652;23.364;2023-11-19T00:59:22;4.60;;;4.20;;
33190;SDS011;19554;42.652;23.364;2023-11-19T01:01:48;5.15;;;3.53;;
33190;SDS011;19554;42.652;23.364;2023-11-19T01:04:14;4.72;;;3.80;;
33190;SDS011;19554;42.652;23.364;2023-11-19T01:06:39;4.80;;;3.63;;
33190;SDS011;19554;42.652;23.364;2023-11-19T01:09:07;4.63;;;3.95;;
33190;SDS011;19554;42.652;23.364;2023-11-19T01:11:33;3.88;;;3.47;;
33190;SDS011;19554;42.652;23.364;2023-11-19T01:13:59;4.90;;;3.47;;
33190;SDS011;19554;42.652;23.364;2023-11-19T01:16:25;5.70;;;3.80;;
33190;SDS011;19554;42.652;23.364;2023-11-19T01:18:51;4.47;;;3.42;;
33190;SDS011;19554;42.652;23.364;2023-11-19T01:21:17;3.90;;;3.47;;
33190;SDS011;19554;42.652;23.364;2023-11-19T01:23:43;4.00;;;3.38;;
33190;SDS011;19554;42.652;23.364;2023-11-19T01:26:09;3.78;;;3.10;;
33190;SDS011;19554;42.652;23.364;2023-11-19T01:28:38;3.30;;;3.00;;
33190;SDS011;19554;42.652;23.364;2023-11-19T01:31:05;3.88;;;3.33;;
33190;SDS011;19554;42.652;23.364;2023-11-19T01:33:30;4.07;;;3.55;;
33190;SDS011;19554;42.652;23.364;2023-11-19T01:35:56;3.88;;;3.53;;
33190;SDS011;19554;42.652;23.364;2023-11-19T01:38:24;4.00;;;3.60;;
33190;SDS011;19554;42.652;23.364;2023-11-19T01:40:49;3.45;;;3.15;;
33190;SDS011;19554;42.652;23.364;2023-11-19T01:45:59;3.90;;;3.13;;
33190;SDS011;19554;42.652;23.364;2023-11-19T01:48:25;3.88;;;3.17;;
33190;SDS011;19554;42.652;23.364;2023-11-19T01:50:51;4.82;;;3.00;;
33190;SDS011;19554;42.652;23.364;2023-11-19T01:53:18;4.32;;;3.28;;
33190;SDS011;19554;42.652;23.364;2023-11-19T01:55:45;8.30;;;3.45;;
33190;SDS011;19554;42.652;23.364;2023-11-19T01:58:12;5.80;;;3.28;;
33190;SDS011;19554;42.652;23.364;2023-11-19T02:00:38;3.95;;;3.05;;
33190;SDS011;19554;42.652;23.364;2023-11-19T02:03:04;3.35;;;3.05;;
33190;SDS011;19554;42.652;23.364;2023-11-19T02:05:33;4.22;;;3.40;;
33190;SDS011;19554;42.652;23.364;2023-11-19T02:08:00;3.95;;;3.40;;
33190;SDS011;19554;42.652;23.364;2023-11-19T02:10:26;3.40;;;3.10;;
33190;SDS011;19554;42.652;23.364;2023-11-19T02:12:51;4.32;;;3.45;;
33190;SDS011;19554;42.652;23.364;2023-11-19T02:15:17;4.13;;;3.35;;
33190;SDS011;19554;42.652;23.364;2023-11-19T02:17:49;3.70;;;3.30;;
33190;SDS011;19554;42.652;23.364;2023-11-19T02:20:15;3.35;;;2.88;;
33190;SDS011;19554;42.652;23.364;2023-11-19T02:22:41;4.00;;;3.22;;
33190;SDS011;19554;42.652;23.364;2023-11-19T02:25:07;6.72;;;3.58;;
33190;SDS011;19554;42.652;23.364;2023-11-19T02:27:53;6.78;;;3.17;;
33190;SDS011;19554;42.652;23.364;2023-11-19T02:30:23;3.78;;;3.00;;
33190;SDS011;19554;42.652;23.364;2023-11-19T02:32:55;3.38;;;3.08;;
33190;SDS011;19554;42.652;23.364;2023-11-19T02:35:23;3.65;;;3.35;;
33190;SDS011;19554;42.652;23.364;2023-11-19T02:37:52;3.83;;;2.95;;
33190;SDS011;19554;42.652;23.364;2023-11-19T02:40:17;4.10;;;3.35;;
33190;SDS011;19554;42.652;23.364;2023-11-19T02:42:43;3.38;;;3.00;;
33190;SDS011;19554;42.652;23.364;2023-11-19T02:45:09;3.58;;;3.20;;
33190;SDS011;19554;42.652;23.364;2023-11-19T02:47:39;5.85;;;3.10;;
33190;SDS011;19554;42.652;23.364;2023-11-19T02:50:11;3.05;;;2.78;;
33190;SDS011;19554;42.652;23.364;2023-11-19T02:52:43;4.13;;;3.10;;
33190;SDS011;19554;42.652;23.364;2023-11-19T02:55:11;4.63;;;2.92;;
33190;SDS011;19554;42.652;23.364;2023-11-19T02:57:40;3.35;;;3.05;;
33190;SDS011;19554;42.652;23.364;2023-11-19T03:00:17;5.00;;;3.03;;
33190;SDS011;19554;42.652;23.364;2023-11-19T03:02:43;3.38;;;2.83;;
33190;SDS011;19554;42.652;23.364;2023-11-19T03:05:13;3.47;;;2.88;;
33190;SDS011;19554;42.652;23.364;2023-11-19T03:07:40;4.72;;;3.00;;
33190;SDS011;19554;42.652;23.364;2023-11-19T03:10:08;3.90;;;3.28;;
33190;SDS011;19554;42.652;23.364;2023-11-19T03:12:34;4.15;;;3.40;;
33190;SDS011;19554;42.652;23.364;2023-11-19T03:15:00;5.38;;;3.00;;
33190;SDS011;19554;42.652;23.364;2023-11-19T03:17:26;3.80;;;2.92;;
33190;SDS011;19554;42.652;23.364;2023-11-19T03:19:51;3.47;;;3.17;;
33190;SDS011;19554;42.652;23.364;2023-11-19T03:22:17;5.20;;;3.03;;
33190;SDS011;19554;42.652;23.364;2023-11-19T03:24:42;3.60;;;3.30;;
33190;SDS011;19554;42.652;23.364;2023-11-19T03:27:07;3.80;;;3.10;;
33190;SDS011;19554;42.652;23.364;2023-11-19T03:29:33;3.42;;;3.13;;
33190;SDS011;19554;42.652;23.364;2023-11-19T03:31:58;4.47;;;3.22;;
33190;SDS011;19554;42.652;23.364;2023-11-19T03:34:24;4.47;;;3.40;;
33190;SDS011;19554;42.652;23.364;2023-11-19T03:36:49;4.53;;;3.30;;
33190;SDS011;19554;42.652;23.364;2023-11-19T03:39:14;3.83;;;3.20;;
33190;SDS011;19554;42.652;23.364;2023-11-19T03:41:40;3.72;;;3.30;;
33190;SDS011;19554;42.652;23.364;2023-11-19T03:44:05;3.65;;;3.33;;
33190;SDS011;19554;42.652;23.364;2023-11-19T03:46:31;3.30;;;3.00;;
33190;SDS011;19554;42.652;23.364;2023-11-19T03:48:56;5.30;;;3.80;;
33190;SDS011;19554;42.652;23.364;2023-11-19T03:51:22;3.80;;;3.05;;
33190;SDS011;19554;42.652;23.364;2023-11-19T03:53:47;5.47;;;3.20;;
33190;SDS011;19554;42.652;23.364;2023-11-19T03:56:13;9.05;;;3.05;;
33190;SDS011;19554;42.652;23.364;2023-11-19T03:58:38;3.90;;;3.10;;
33190;SDS011;19554;42.652;23.364;2023-11-19T04:01:05;3.58;;;3.10;;
33190;SDS011;19554;42.652;23.364;2023-11-19T04:03:31;4.15;;;3.22;;
33190;SDS011;19554;42.652;23.364;2023-11-19T04:05:57;4.32;;;3.70;;
33190;SDS011;19554;42.652;23.364;2023-11-19T04:08:22;6.45;;;3.33;;
33190;SDS011;19554;42.652;23.364;2023-11-19T04:10:48;4.55;;;3.38;;
33190;SDS011;19554;42.652;23.364;2023-11-19T04:13:13;3.30;;;2.95;;
33190;SDS011;19554;42.652;23.364;2023-11-19T04:15:39;4.28;;;3.83;;
33190;SDS011;19554;42.652;23.364;2023-11-19T04:18:04;4.03;;;3.60;;
33190;SDS011;19554;42.652;23.364;2023-11-19T04:20:30;3.55;;;3.25;;
33190;SDS011;19554;42.652;23.364;2023-11-19T04:22:56;4.53;;;3.50;;
33190;SDS011;19554;42.652;23.364;2023-11-19T04:25:22;3.42;;;3.10;;
33190;SDS011;19554;42.652;23.364;2023-11-19T04:27:47;4.53;;;3.28;;
33190;SDS011;19554;42.652;23.364;2023-11-19T04:30:13;5.60;;;3.55;;
33190;SDS011;19554;42.652;23.364;2023-11-19T04:32:38;3.50;;;3.20;;
33190;SDS011;19554;42.652;23.364;2023-11-19T04:35:04;5.55;;;3.30;;
33190;SDS011;19554;42.652;23.364;2023-11-19T04:37:31;5.47;;;3.47;;
33190;SDS011;19554;42.652;23.364;2023-11-19T04:39:57;4.68;;;3.42;;
33190;SDS011;19554;42.652;23.364;2023-11-19T04:42:22;5.18;;;3.20;;
33190;SDS011;19554;42.652;23.364;2023-11-19T04:44:49;4.40;;;3.50;;
33190;SDS011;19554;42.652;23.364;2023-11-19T04:47:14;4.50;;;3.60;;
33190;SDS011;19554;42.652;23.364;2023-11-19T04:49:40;4.05;;;3.40;;
33190;SDS011;19554;42.652;23.364;2023-11-19T04:52:08;3.95;;;3.20;;
33190;SDS011;19554;42.652;23.364;2023-11-19T04:54:33;3.88;;;3.25;;
33190;SDS011;19554;42.652;23.364;2023-11-19T04:56:59;9.05;;;3.72;;
33190;SDS011;19554;42.652;23.364;2023-11-19T04:59:24;4.95;;;3.58;;
33190;SDS011;19554;42.652;23.364;2023-11-19T05:01:50;4.03;;;3.63;;
33190;SDS011;19554;42.652;23.364;2023-11-19T05:04:15;5.07;;;3.50;;
33190;SDS011;19554;42.652;23.364;2023-11-19T05:06:43;4.53;;;3.85;;
33190;SDS011;19554;42.652;23.364;2023-11-19T05:09:09;4.20;;;3.22;;
33190;SDS011;19554;42.652;23.364;2023-11-19T05:11:37;3.50;;;3.15;;
33190;SDS011;19554;42.652;23.364;2023-11-19T05:14:04;4.03;;;3.53;;
33190;SDS011;19554;42.652;23.364;2023-11-19T05:16:29;4.60;;;3.67;;
33190;SDS011;19554;42.652;23.364;2023-11-19T05:18:55;4.22;;;3.20;;
33190;SDS011;19554;42.652;23.364;2023-11-19T05:21:20;4.10;;;3.40;;
33190;SDS011;19554;42.652;23.364;2023-11-19T05:23:46;6.05;;;3.83;;
33190;SDS011;19554;42.652;23.364;2023-11-19T05:26:18;5.90;;;4.03;;
33190;SDS011;19554;42.652;23.364;2023-11-19T05:28:44;5.53;;;3.70;;
33190;SDS011;19554;42.652;23.364;2023-11-19T05:31:10;5.18;;;3.10;;
33190;SDS011;19554;42.652;23.364;2023-11-19T05:33:36;5.40;;;3.30;;
33190;SDS011;19554;42.652;23.364;2023-11-19T05:36:01;4.60;;;3.10;;
33190;SDS011;19554;42.652;23.364;2023-11-19T05:38:28;3.88;;;3.05;;
33190;SDS011;19554;42.652;23.364;2023-11-19T05:40:54;4.30;;;2.97;;
33190;SDS011;19554;42.652;23.364;2023-11-19T05:43:20;4.20;;;3.35;;
33190;SDS011;19554;42.652;23.364;2023-11-19T05:45:46;4.57;;;3.30;;
33190;SDS011;19554;42.652;23.364;2023-11-19T05:48:12;4.70;;;3.22;;
33190;SDS011;19554;42.652;23.364;2023-11-19T05:50:38;4.75;;;3.85;;
33190;SDS011;19554;42.652;23.364;2023-11-19T05:53:04;4.25;;;3.13;;
33190;SDS011;19554;42.652;23.364;2023-11-19T05:55:35;5.00;;;3.08;;
33190;SDS011;19554;42.652;23.364;2023-11-19T05:58:11;6.13;;;3.63;;
33190;SDS011;19554;42.652;23.364;2023-11-19T06:00:37;4.13;;;3.53;;
33190;SDS011;19554;42.652;23.364;2023-11-19T06:03:04;4.63;;;3.60;;
33190;SDS011;19554;42.652;23.364;2023-11-19T06:05:29;4.40;;;3.45;;
33190;SDS011;19554;42.652;23.364;2023-11-19T06:07:55;3.53;;;3.22;;
33190;SDS011;19554;42.652;23.364;2023-11-19T06:10:20;5.18;;;4.00;;
33190;SDS011;19554;42.652;23.364;2023-11-19T06:12:46;5.40;;;3.13;;
33190;SDS011;19554;42.652;23.364;2023-11-19T06:15:12;3.85;;;3.45;;
33190;SDS011;19554;42.652;23.364;2023-11-19T06:17:38;4.60;;;3.53;;
33190;SDS011;19554;42.652;23.364;2023-11-19T06:20:04;5.45;;;3.63;;
33190;SDS011;19554;42.652;23.364;2023-11-19T06:22:30;5.47;;;3.78;;
33190;SDS011;19554;42.652;23.364;2023-11-19T06:24:56;5.63;;;3.78;;
33190;SDS011;19554;42.652;23.364;2023-11-19T06:27:21;4.55;;;3.85;;
33190;SDS011;19554;42.652;23.364;2023-11-19T06:29:47;5.55;;;4.25;;
33190;SDS011;19554;42.652;23.364;2023-11-19T06:32:12;4.20;;;3.80;;
33190;SDS011;19554;42.652;23.364;2023-11-19T06:34:38;4.13;;;3.70;;
33190;SDS011;19554;42.652;23.364;2023-11-19T06:37:04;5.32;;;4.13;;
33190;SDS011;19554;42.652;23.364;2023-11-19T06:39:29;5.18;;;3.45;;
33190;SDS011;19554;42.652;23.364;2023-11-19T06:41:55;5.20;;;3.42;;
33190;SDS011;19554;42.652;23.364;2023-11-19T06:44:20;5.10;;;4.00;;
33190;SDS011;19554;42.652;23.364;2023-11-19T06:46:46;4.80;;;3.50;;
33190;SDS011;19554;42.652;23.364;2023-11-19T06:49:13;6.28;;;3.60;;
33190;SDS011;19554;42.652;23.364;2023-11-19T06:51:42;4.85;;;3.85;;
33190;SDS011;19554;42.652;23.364;2023-11-19T06:54:08;5.57;;;4.00;;
33190;SDS011;19554;42.652;23.364;2023-11-19T06:56:34;6.78;;;4.20;;
33190;SDS011;19554;42.652;23.364;2023-11-19T06:58:59;6.47;;;3.90;;
33190;SDS011;19554;42.652;23.364;2023-11-19T07:01:25;5.85;;;4.20;;
33190;SDS011;19554;42.652;23.364;2023-11-19T07:03:50;5.85;;;4.50;;
33190;SDS011;19554;42.652;23.364;2023-11-19T07:06:16;5.15;;;3.97;;
33190;SDS011;19554;42.652;23.364;2023-11-19T07:08:42;6.43;;;4.25;;
33190;SDS011;19554;42.652;23.364;2023-11-19T07:11:11;6.25;;;4.07;;
33190;SDS011;19554;42.652;23.364;2023-11-19T07:13:37;5.90;;;3.80;;
33190;SDS011;19554;42.652;23.364;2023-11-19T07:16:03;4.82;;;4.30;;
33190;SDS011;19554;42.652;23.364;2023-11-19T07:18:28;8.60;;;4.60;;
33190;SDS011;19554;42.652;23.364;2023-11-19T07:20:54;6.57;;;4.40;;
33190;SDS011;19554;42.652;23.364;2023-11-19T07:23:20;6.82;;;4.60;;
33190;SDS011;19554;42.652;23.364;2023-11-19T07:25:46;5.97;;;4.32;;
33190;SDS011;19554;42.652;23.364;2023-11-19T07:28:12;6.90;;;4.88;;
33190;SDS011;19554;42.652;23.364;2023-11-19T07:30:38;8.50;;;4.13;;
33190;SDS011;19554;42.652;23.364;2023-11-19T07:33:03;7.15;;;3.85;;
33190;SDS011;19554;42.652;23.364;2023-11-19T07:35:29;4.63;;;3.75;;
33190;SDS011;19554;42.652;23.364;2023-11-19T07:37:57;6.63;;;4.88;;
33190;SDS011;19554;42.652;23.364;2023-11-19T07:40:23;5.65;;;4.07;;
33190;SDS011;19554;42.652;23.364;2023-11-19T07:42:49;5.68;;;4.20;;
33190;SDS011;19554;42.652;23.364;2023-11-19T07:45:15;5.30;;;3.97;;
33190;SDS011;19554;42.652;23.364;2023-11-19T07:47:40;5.78;;;4.25;;
33190;SDS011;19554;42.652;23.364;2023-11-19T07:50:06;5.68;;;4.15;;
33190;SDS011;19554;42.652;23.364;2023-11-19T07:52:32;7.13;;;4.38;;
33190;SDS011;19554;42.652;23.364;2023-11-19T07:54:57;5.53;;;4.13;;
33190;SDS011;19554;42.652;23.364;2023-11-19T07:57:23;6.22;;;4.10;;
33190;SDS011;19554;42.652;23.364;2023-11-19T07:59:49;6.15;;;4.88;;
33190;SDS011;19554;42.652;23.364;2023-11-19T08:02:14;4.70;;;4.20;;
33190;SDS011;19554;42.652;23.364;2023-11-19T08:04:40;6.47;;;4.78;;
33190;SDS011;19554;42.652;23.364;2023-11-19T08:07:09;6.30;;;4.57;;
33190;SDS011;19554;42.652;23.364;2023-11-19T08:09:36;6.63;;;3.88;;
33190;SDS011;19554;42.652;23.364;2023-11-19T08:12:02;5.93;;;4.05;;
33190;SDS011;19554;42.652;23.364;2023-11-19T08:14:28;6.47;;;4.82;;
33190;SDS011;19554;42.652;23.364;2023-11-19T08:16:54;8.77;;;4.90;;
33190;SDS011;19554;42.652;23.364;2023-11-19T08:19:19;5.45;;;4.15;;
33190;SDS011;19554;42.652;23.364;2023-11-19T08:21:44;5.85;;;4.85;;
33190;SDS011;19554;42.652;23.364;2023-11-19T08:24:10;5.35;;;4.25;;
33190;SDS011;19554;42.652;23.364;2023-11-19T08:26:35;5.22;;;4.25;;
33190;SDS011;19554;42.652;23.364;2023-11-19T08:29:01;6.65;;;4.90;;
33190;SDS011;19554;42.652;23.364;2023-11-19T08:31:26;5.07;;;3.95;;
33190;SDS011;19554;42.652;23.364;2023-11-19T08:33:51;6.72;;;4.10;;
33190;SDS011;19554;42.652;23.364;2023-11-19T08:36:17;7.30;;;4.65;;
33190;SDS011;19554;42.652;23.364;2023-11-19T08:38:43;6.45;;;4.18;;
33190;SDS011;19554;42.652;23.364;2023-11-19T08:41:08;4.70;;;4.10;;
33190;SDS011;19554;42.652;23.364;2023-11-19T08:43:33;5.55;;;4.18;;
33190;SDS011;19554;42.652;23.364;2023-11-19T08:45:59;7.25;;;4.43;;
33190;SDS011;19554;42.652;23.364;2023-11-19T08:48:24;4.82;;;3.95;;
33190;SDS011;19554;42.652;23.364;2023-11-19T08:50:51;7.25;;;3.97;;
33190;SDS011;19554;42.652;23.364;2023-11-19T08:53:16;5.30;;;4.22;;
33190;SDS011;19554;42.652;23.364;2023-11-19T08:55:41;7.22;;;4.70;;
33190;SDS011;19554;42.652;23.364;2023-11-19T08:58:07;5.30;;;4.43;;
33190;SDS011;19554;42.652;23.364;2023-11-19T09:00:32;6.22;;;4.88;;
33190;SDS011;19554;42.652;23.364;2023-11-19T09:02:58;7.55;;;5.10;;
33190;SDS011;19554;42.652;23.364;2023-11-19T09:05:24;7.25;;;5.30;;
33190;SDS011;19554;42.652;23.364;2023-11-19T09:07:49;4.68;;;3.70;;
33190;SDS011;19554;42.652;23.364;2023-11-19T09:10:15;6.75;;;4.05;;
33190;SDS011;19554;42.652;23.364;2023-11-19T09:12:41;6.97;;;4.63;;
33190;SDS011;19554;42.652;23.364;2023-11-19T09:15:06;7.82;;;4.93;;
33190;SDS011;19554;42.652;23.364;2023-11-19T09:17:32;6.10;;;4.22;;
33190;SDS011;19554;42.652;23.364;2023-11-19T09:19:58;9.20;;;4.60;;
33190;SDS011;19554;42.652;23.364;2023-11-19T09:22:23;5.40;;;4.20;;
33190;SDS011;19554;42.652;23.364;2023-11-19T09:24:49;5.47;;;4.28;;
33190;SDS011;19554;42.652;23.364;2023-11-19T09:27:14;6.60;;;4.75;;
33190;SDS011;19554;42.652;23.364;2023-11-19T09:29:40;5.68;;;4.20;;
33190;SDS011;19554;42.652;23.364;2023-11-19T09:32:06;5.53;;;4.40;;
33190;SDS011;19554;42.652;23.364;2023-11-19T09:34:32;4.88;;;4.13;;
33190;SDS011;19554;42.652;23.364;2023-11-19T09:36:58;7.93;;;4.68;;
33190;SDS011;19554;42.652;23.364;2023-11-19T09:39:23;7.43;;;5.30;;
33190;SDS011;19554;42.652;23.364;2023-11-19T09:41:50;6.65;;;4.00;;
33190;SDS011;19554;42.652;23.364;2023-11-19T09:44:16;4.47;;;3.40;;
33190;SDS011;19554;42.652;23.364;2023-11-19T09:46:43;6.40;;;4.10;;
33190;SDS011;19554;42.652;23.364;2023-11-19T09:49:10;4.93;;;3.92;;
33190;SDS011;19554;42.652;23.364;2023-11-19T09:51:36;5.25;;;4.20;;
33190;SDS011;19554;42.652;23.364;2023-11-19T09:54:02;6.97;;;4.32;;
33190;SDS011;19554;42.652;23.364;2023-11-19T09:56:28;5.78;;;3.90;;
33190;SDS011;19554;42.652;23.364;2023-11-19T09:58:54;5.80;;;3.60;;
33190;SDS011;19554;42.652;23.364;2023-11-19T10:01:20;4.28;;;3.13;;
33190;SDS011;19554;42.652;23.364;2023-11-19T10:03:46;5.80;;;4.25;;
33190;SDS011;19554;42.652;23.364;2023-11-19T10:06:13;5.93;;;3.70;;
33190;SDS011;19554;42.652;23.364;2023-11-19T10:08:40;8.07;;;4.00;;
33190;SDS011;19554;42.652;23.364;2023-11-19T10:11:06;5.53;;;4.28;;
33190;SDS011;19554;42.652;23.364;2023-11-19T10:13:34;4.63;;;3.60;;
33190;SDS011;19554;42.652;23.364;2023-11-19T10:16:06;5.20;;;4.00;;
33190;SDS011;19554;42.652;23.364;2023-11-19T10:18:33;5.22;;;3.72;;
33190;SDS011;19554;42.652;23.364;2023-11-19T10:21:03;4.45;;;3.88;;
33190;SDS011;19554;42.652;23.364;2023-11-19T10:23:29;4.22;;;3.50;;
33190;SDS011;19554;42.652;23.364;2023-11-19T10:25:56;4.82;;;3.67;;
33190;SDS011;19554;42.652;23.364;2023-11-19T10:28:37;3.83;;;3.10;;
33190;SDS011;19554;42.652;23.364;2023-11-19T10:31:04;5.10;;;3.88;;
33190;SDS011;19554;42.652;23.364;2023-11-19T10:33:30;4.63;;;3.58;;
33190;SDS011;19554;42.652;23.364;2023-11-19T10:35:58;4.47;;;3.60;;
33190;SDS011;19554;42.652;23.364;2023-11-19T10:38:26;5.32;;;3.88;;
33190;SDS011;19554;42.652;23.364;2023-11-19T10:40:53;5.97;;;3.60;;
33190;SDS011;19554;42.652;23.364;2023-11-19T10:43:19;4.50;;;3.28;;
33190;SDS011;19554;42.652;23.364;2023-11-19T10:45:47;5.63;;;3.55;;
33190;SDS011;19554;42.652;23.364;2023-11-19T10:48:13;4.65;;;3.35;;
33190;SDS011;19554;42.652;23.364;2023-11-19T10:50:40;3.70;;;3.30;;
33190;SDS011;19554;42.652;23.364;2023-11-19T10:53:07;5.63;;;3.38;;
33190;SDS011;19554;42.652;23.364;2023-11-19T10:55:34;4.85;;;3.00;;
33190;SDS011;19554;42.652;23.364;2023-11-19T10:58:06;3.90;;;3.13;;
33190;SDS011;19554;42.652;23.364;2023-11-19T11:00:44;4.45;;;3.78;;
33190;SDS011;19554;42.652;23.364;2023-11-19T11:03:16;4.47;;;4.00;;
33190;SDS011;19554;42.652;23.364;2023-11-19T11:05:43;4.43;;;3.30;;
33190;SDS011;19554;42.652;23.364;2023-11-19T11:08:12;5.53;;;3.70;;
33190;SDS011;19554;42.652;23.364;2023-11-19T11:10:50;4.32;;;3.72;;
33190;SDS011;19554;42.652;23.364;2023-11-19T11:13:18;7.90;;;3.13;;
33190;SDS011;19554;42.652;23.364;2023-11-19T11:15:45;4.50;;;3.38;;
33190;SDS011;19554;42.652;23.364;2023-11-19T11:18:12;4.22;;;3.47;;
33190;SDS011;19554;42.652;23.364;2023-11-19T11:20:38;4.38;;;3.13;;
33190;SDS011;19554;42.652;23.364;2023-11-19T11:23:19;4.10;;;3.00;;
33190;SDS011;19554;42.652;23.364;2023-11-19T11:37:19;4.15;;;3.10;;
33190;SDS011;19554;42.652;23.364;2023-11-19T11:39:51;3.35;;;2.97;;
33190;SDS011;19554;42.652;23.364;2023-11-19T11:50:08;4.53;;;3.80;;
33190;SDS011;19554;42.652;23.364;2023-11-19T11:57:54;6.07;;;3.47;;
33190;SDS011;19554;42.652;23.364;2023-11-19T12:00:33;5.30;;;3.75;;
33190;SDS011;19554;42.652;23.364;2023-11-19T12:03:04;4.43;;;3.10;;
33190;SDS011;19554;42.652;23.364;2023-11-19T12:05:31;4.68;;;3.25;;
33190;SDS011;19554;42.652;23.364;2023-11-19T12:08:03;4.30;;;3.53;;
33190;SDS011;19554;42.652;23.364;2023-11-19T12:10:32;4.88;;;3.80;;
33190;SDS011;19554;42.652;23.364;2023-11-19T12:15:31;3.70;;;3.13;;
33190;SDS011;19554;42.652;23.364;2023-11-19T12:17:56;5.10;;;3.42;;
33190;SDS011;19554;42.652;23.364;2023-11-19T12:20:22;5.00;;;3.30;;
33190;SDS011;19554;42.652;23.364;2023-11-19T12:22:49;5.47;;;4.07;;
33190;SDS011;19554;42.652;23.364;2023-11-19T12:25:16;5.53;;;4.20;;
33190;SDS011;19554;42.652;23.364;2023-11-19T12:30:12;6.10;;;3.75;;
33190;SDS011;19554;42.652;23.364;2023-11-19T12:32:43;4.53;;;4.00;;
33190;SDS011;19554;42.652;23.364;2023-11-19T12:35:10;3.90;;;3.33;;
33190;SDS011;19554;42.652;23.364;2023-11-19T12:37:43;5.18;;;3.67;;
33190;SDS011;19554;42.652;23.364;2023-11-19T12:40:21;4.70;;;3.90;;
33190;SDS011;19554;42.652;23.364;2023-11-19T12:42:51;4.93;;;3.67;;
33190;SDS011;19554;42.652;23.364;2023-11-19T12:45:18;6.55;;;4.18;;
33190;SDS011;19554;42.652;23.364;2023-11-19T12:47:45;8.43;;;4.85;;
33190;SDS011;19554;42.652;23.364;2023-11-19T12:50:15;5.88;;;4.00;;
33190;SDS011;19554;42.652;23.364;2023-11-19T12:52:44;7.47;;;4.63;;
33190;SDS011;19554;42.652;23.364;2023-11-19T12:55:24;4.57;;;3.67;;
33190;SDS011;19554;42.652;23.364;2023-11-19T12:57:54;6.63;;;4.63;;
33190;SDS011;19554;42.652;23.364;2023-11-19T13:00:21;8.90;;;4.70;;
33190;SDS011;19554;42.652;23.364;2023-11-19T13:02:59;5.75;;;4.22;;
33190;SDS011;19554;42.652;23.364;2023-11-19T13:05:31;7.45;;;4.38;;
33190;SDS011;19554;42.652;23.364;2023-11-19T13:08:08;6.13;;;4.45;;
33190;SDS011;19554;42.652;23.364;2023-11-19T13:10:49;7.15;;;4.00;;
33190;SDS011;19554;42.652;23.364;2023-11-19T13:13:16;5.53;;;4.13;;
33190;SDS011;19554;42.652;23.364;2023-11-19T13:15:42;6.72;;;4.70;;
33190;SDS011;19554;42.652;23.364;2023-11-19T13:18:10;5.65;;;4.20;;
33190;SDS011;19554;42.652;23.364;2023-11-19T13:20:35;9.68;;;3.95;;
33190;SDS011;19554;42.652;23.364;2023-11-19T13:23:01;6.93;;;4.50;;
33190;SDS011;19554;42.652;23.364;2023-11-19T13:25:28;7.82;;;4.97;;
33190;SDS011;19554;42.652;23.364;2023-11-19T13:27:54;5.70;;;4.45;;
33190;SDS011;19554;42.652;23.364;2023-11-19T13:30:21;5.47;;;4.30;;
33190;SDS011;19554;42.652;23.364;2023-11-19T13:32:47;7.18;;;4.90;;
33190;SDS011;19554;42.652;23.364;2023-11-19T13:35:13;8.65;;;4.63;;
33190;SDS011;19554;42.652;23.364;2023-11-19T13:37:39;5.53;;;4.55;;
33190;SDS011;19554;42.652;23.364;2023-11-19T13:40:06;5.93;;;4.32;;
33190;SDS011;19554;42.652;23.364;2023-11-19T13:42:32;5.80;;;4.55;;
33190;SDS011;19554;42.652;23.364;2023-11-19T13:44:58;7.45;;;4.50;;
33190;SDS011;19554;42.652;23.364;2023-11-19T13:47:23;6.30;;;4.38;;
33190;SDS011;19554;42.652;23.364;2023-11-19T13:49:49;5.82;;;4.22;;
33190;SDS011;19554;42.652;23.364;2023-11-19T13:52:15;8.43;;;4.55;;
33190;SDS011;19554;42.652;23.364;2023-11-19T13:54:40;5.93;;;4.65;;
33190;SDS011;19554;42.652;23.364;2023-11-19T13:57:06;7.15;;;4.55;;
33190;SDS011;19554;42.652;23.364;2023-11-19T13:59:31;6.28;;;4.55;;
33190;SDS011;19554;42.652;23.364;2023-11-19T14:02:00;9.15;;;5.07;;
33190;SDS011;19554;42.652;23.364;2023-11-19T14:04:25;7.15;;;4.38;;
33190;SDS011;19554;42.652;23.364;2023-11-19T14:06:51;9.27;;;3.90;;
33190;SDS011;19554;42.652;23.364;2023-11-19T14:09:17;5.63;;;4.07;;
33190;SDS011;19554;42.652;23.364;2023-11-19T14:11:42;7.45;;;4.28;;
33190;SDS011;19554;42.652;23.364;2023-11-19T14:14:08;6.70;;;4.68;;
33190;SDS011;19554;42.652;23.364;2023-11-19T14:16:34;7.35;;;4.53;;
33190;SDS011;19554;42.652;23.364;2023-11-19T14:19:00;5.53;;;4.05;;
33190;SDS011;19554;42.652;23.364;2023-11-19T14:21:25;5.68;;;4.53;;
33190;SDS011;19554;42.652;23.364;2023-11-19T14:23:51;6.32;;;4.43;;
33190;SDS011;19554;42.652;23.364;2023-11-19T14:26:17;6.78;;;3.83;;
33190;SDS011;19554;42.652;23.364;2023-11-19T14:28:43;6.35;;;4.65;;
33190;SDS011;19554;42.652;23.364;2023-11-19T14:31:09;5.65;;;3.95;;
33190;SDS011;19554;42.652;23.364;2023-11-19T14:33:34;6.45;;;4.05;;
33190;SDS011;19554;42.652;23.364;2023-11-19T14:36:01;6.18;;;4.30;;
33190;SDS011;19554;42.652;23.364;2023-11-19T14:38:26;5.85;;;4.43;;
33190;SDS011;19554;42.652;23.364;2023-11-19T14:40:52;5.95;;;4.70;;
33190;SDS011;19554;42.652;23.364;2023-11-19T14:43:17;6.53;;;4.43;;
33190;SDS011;19554;42.652;23.364;2023-11-19T14:45:43;6.15;;;4.85;;
33190;SDS011;19554;42.652;23.364;2023-11-19T14:48:08;7.38;;;5.18;;
33190;SDS011;19554;42.652;23.364;2023-11-19T14:50:35;6.22;;;4.78;;
33190;SDS011;19554;42.652;23.364;2023-11-19T14:53:00;9.70;;;5.15;;
33190;SDS011;19554;42.652;23.364;2023-11-19T14:55:26;7.95;;;5.70;;
33190;SDS011;19554;42.652;23.364;2023-11-19T14:57:51;6.75;;;5.22;;
33190;SDS011;19554;42.652;23.364;2023-11-19T15:00:17;6.68;;;5.20;;
33190;SDS011;19554;42.652;23.364;2023-11-19T15:02:42;8.60;;;5.50;;